GABS/BKO METAR and TAF weather

Enter ICAO airport designator
Station Type Date Time Source
GABS METAR 2019/10/18 06:00 UTC NOAA

GABS 180600Z 20002KT 9999 FEW020 24/23 Q1014 NOSIG


Station Type Date Time Source
GABS Decoded METAR 2019/10/18 06:00 UTC NOAA

Bamako / Senou, Mali (GABS) 12-32N 007-57W 381M
Oct 18, 2019 - 02:00 AM EDT / 2019.10.18 0600 UTC
Wind: from the SSW (200 degrees) at 2 MPH (2 KT):0
Visibility: greater than 7 mile(s):0
Sky conditions: mostly clear
Temperature: 75 F (24 C)
Dew Point: 73 F (23 C)
Relative Humidity: 94%
Pressure (altimeter): 29.94 in. Hg (1014 hPa)
ob: GABS 180600Z 20002KT 9999 FEW020 24/23 Q1014 NOSIG
cycle: 6

Station Type Date Time Source
GABS TAF 2019/10/18 06:03 UTC NOAA

TAF TAF GABS 180500Z 1806/1912 28005KT 9999 FEW026 PROB30
TEMPO 1807/1811 TS SHRA SCT026 FEW033CB PROB40
TEMPO 1815/1818 VRB20G30KT 4000 TSRA SCT026 FEW033CB

Example: see airport list